Flight Track Log - Related Links

Times and Time Zones

All times are in EDT time to prevent confusion due to time zone crossing. See the EJM826 flight status page for this flight to view local times or setup timezone preferences in your user account.

Time Position Orientation Groundspeed Altitude Reporting Facility
EDT Latitude Longitude Course Direction KTS MPH feet Rate Location/Type
Fri 05:44:24 PM 33.6600 -101.8653 274° West 164 189 4,500  Level Fort Worth Center
Fri 05:45:25 PM 33.6747 -101.9211 288° West 214 246 6,400 1,967 Climbing Fort Worth Center
Fri 05:46:26 PM 33.7208 -101.9733 317° Northwest 234 269 8,500 1,884 Climbing Fort Worth Center
Fri 05:47:26 PM 33.7711 -102.0258 319° Northwest 248 285 10,200 1,760 Climbing Fort Worth Center
Fri 05:47:41 PM 33.7975 -102.0447 329° Northwest 295 339 10,700 1,920 Climbing Fort Worth Center
Fri 05:48:41 PM 33.8419 -102.0872 322° Northwest 302 348 12,600 1,700 Climbing Fort Worth Center
Fri 05:49:41 PM 33.8847 -102.1694 302° West 281 323 14,100 1,700 Climbing Fort Worth Center
Fri 05:50:41 PM 33.8939 -102.2550 277° West 275 316 16,000 1,900 Climbing Fort Worth Center
Fri 05:51:41 PM 33.9022 -102.3606 275° West 297 342 17,900 1,826 Climbing Fort Worth Center
Fri 05:52:36 PM 33.9089 -102.4492 275° West 292 336 19,500 1,641 Climbing Albuquerque Center
Fri 05:53:38 PM 33.9153 -102.5511 274° West 297 342 21,100 1,500 Climbing Albuquerque Center
Fri 05:54:40 PM 33.9225 -102.6542 275° West 302 348 22,600 1,500 Climbing Albuquerque Center
Fri 05:55:42 PM 33.9297 -102.7631 275° West 310 357 24,200 1,306 Climbing Albuquerque Center
Fri 05:56:44 PM 33.9369 -102.8681 275° West 315 362 25,300 1,161 Climbing Albuquerque Center
Fri 05:57:46 PM 33.9444 -102.9769 275° West 319 367 26,600 1,355 Climbing Albuquerque Center
Fri 05:58:48 PM 33.9536 -103.1086 275° West 326 375 28,100 1,161 Climbing Albuquerque Center
Fri 05:59:50 PM 33.9608 -103.2194 275° West 330 380 29,000 919 Climbing Albuquerque Center
Fri 06:00:52 PM 33.9686 -103.3508 274° West 342 394 30,000 1,016 Climbing Albuquerque Center
Fri 06:01:54 PM 33.9744 -103.4703 273° West 350 403 31,100 1,113 Climbing Albuquerque Center
Fri 06:02:56 PM 33.9822 -103.5919 274° West 356 410 32,300 1,113 Climbing Albuquerque Center
Fri 06:03:58 PM 33.9889 -103.7139 274° West 359 413 33,400 1,113 Climbing Albuquerque Center
Fri 06:05:00 PM 33.9953 -103.8347 274° West 359 413 34,600 1,306 Climbing Albuquerque Center
Fri 06:06:02 PM 34.0022 -103.9553 274° West 357 411 36,100 1,016 Climbing Albuquerque Center
Fri 06:07:04 PM 34.0094 -104.0706 274° West 349 402 36,700 871 Climbing Albuquerque Center
Fri 06:08:06 PM 34.0164 -104.1917 274° West 354 407 37,900 1,161 Climbing Albuquerque Center
Fri 06:09:08 PM 34.0236 -104.3319 274° West 355 409 39,100 968 Climbing Albuquerque Center
Fri 06:10:10 PM 34.0306 -104.4522 274° West 356 410 39,900 435 Climbing Albuquerque Center
Fri 06:11:12 PM 34.0367 -104.5728 274° West 356 410 40,000 48 Climbing Albuquerque Center
Fri 06:12:14 PM 34.0431 -104.6989 274° West 368 423 40,000  Level Albuquerque Center
Fri 06:13:16 PM 34.0500 -104.8317 274° West 384 442 40,000  Level Albuquerque Center
Fri 06:14:18 PM 34.0564 -104.9669 273° West 395 455 40,000  Level Albuquerque Center
Fri 06:15:20 PM 34.0639 -105.1053 274° West 404 465 40,000  Level Albuquerque Center
Fri 06:16:22 PM 34.0706 -105.2453 273° West 411 473 40,000  Level Albuquerque Center
Fri 06:17:24 PM 34.0769 -105.4058 273° West 409 471 40,000  Level Albuquerque Center
Fri 06:18:26 PM 34.0839 -105.5403 274° West 402 463 40,000  Level Albuquerque Center
Fri 06:19:28 PM 34.0900 -105.6714 273° West 392 451 40,000  Level Albuquerque Center
Fri 06:20:31 PM 34.0950 -105.8022 273° West 388 447 40,000  Level Albuquerque Center
Fri 06:21:33 PM 34.1003 -105.9342 273° West 391 450 40,000  Level Albuquerque Center
Fri 06:22:35 PM 34.1050 -106.0678 272° West 392 451 40,000  Level Albuquerque Center
Fri 06:23:37 PM 34.1106 -106.2033 273° West 399 459 40,000  Level Albuquerque Center
Fri 06:24:39 PM 34.1158 -106.3450 273° West 397 457 40,000  Level Albuquerque Center
Fri 06:25:41 PM 34.1208 -106.4772 273° West 396 456 40,000  Level Albuquerque Center
Fri 06:26:43 PM 34.1239 -106.6122 272° West 397 457 40,000  Level Albuquerque Center
Fri 06:27:45 PM 34.1297 -106.7406 273° West 391 450 40,000  Level Albuquerque Center
Fri 06:28:47 PM 34.1344 -106.8714 273° West 390 449 40,000  Level Albuquerque Center
Fri 06:29:49 PM 34.1397 -107.0297 272° West 391 450 40,000  Level Albuquerque Center
Fri 06:30:51 PM 34.1439 -107.1617 272° West 393 452 40,000 -145 Level Albuquerque Center
Fri 06:31:53 PM 34.1481 -107.2958 272° West 397 457 39,700 -677 Descending Albuquerque Center
Fri 06:32:55 PM 34.1514 -107.4306 272° West 399 459 38,600 -823 Descending Albuquerque Center
Fri 06:33:57 PM 34.1561 -107.5600 273° West 392 451 38,000 -290 Descending Albuquerque Center
Fri 06:34:59 PM 34.1594 -107.6881 272° West 385 443 38,000  Level Albuquerque Center
Fri 06:36:01 PM 34.1622 -107.8131 272° West 377 434 38,000  Level Albuquerque Center
Fri 06:37:03 PM 34.1669 -107.9678 272° West 381 438 38,000  Level Albuquerque Center
Fri 06:38:05 PM 34.1689 -108.0953 271° West 381 438 38,000  Level Albuquerque Center
Fri 06:39:07 PM 34.1736 -108.2247 273° West 382 440 38,000  Level Albuquerque Center
Fri 06:40:09 PM 34.1767 -108.3547 272° West 386 444 38,000  Level Albuquerque Center
Fri 06:41:10 PM 34.1797 -108.4758 272° West 382 440 38,000  Level Albuquerque Center
Fri 06:42:12 PM 34.1822 -108.6272 271° West 378 435 38,000  Level Albuquerque Center
Fri 06:43:14 PM 34.1847 -108.7564 271° West 383 441 38,000  Level Albuquerque Center
Fri 06:44:16 PM 34.1872 -108.8894 271° West 383 441 38,000  Level Albuquerque Center
Fri 06:45:18 PM 34.1894 -109.0119 271° West 383 441 38,000  Level Albuquerque Center
Fri 06:46:20 PM 34.1917 -109.1394 271° West 382 440 38,000  Level Albuquerque Center
Fri 06:47:21 PM 34.1933 -109.2678 271° West 384 442 38,000  Level Albuquerque Center
Fri 06:48:23 PM 34.1956 -109.4214 271° West 383 441 38,000  Level Albuquerque Center
Fri 06:49:25 PM 34.1961 -109.5472 270° West 384 442 38,000  Level Albuquerque Center
Fri 06:50:27 PM 34.1981 -109.6689 271° West 380 437 38,000  Level Albuquerque Center
Fri 06:51:28 PM 34.1992 -109.8117 271° West 380 437 38,000  Level Albuquerque Center
Fri 06:52:30 PM 34.2006 -109.9333 271° West 380 437 38,000  Level Albuquerque Center
Fri 06:53:32 PM 34.2017 -110.0750 271° West 378 435 38,000  Level Albuquerque Center
Fri 06:54:34 PM 34.2025 -110.1853 271° West 383 441 38,000  Level Albuquerque Center
Fri 06:55:35 PM 34.2036 -110.3378 271° West 381 438 38,000  Level Albuquerque Center
Fri 06:56:37 PM 34.2028 -110.4706 270° West 391 450 38,000  Level Albuquerque Center
Fri 06:57:39 PM 34.2042 -110.5964 271° West 382 440 38,000  Level Albuquerque Center
Fri 06:58:40 PM 34.2039 -110.7250 270° West 383 441 38,000  Level Albuquerque Center
Fri 06:59:42 PM 34.2044 -110.8728 270° West 385 443 38,000  Level Albuquerque Center
Fri 07:00:44 PM 34.2039 -111.0022 270° West 387 445 38,000  Level Albuquerque Center
Fri 07:01:45 PM 34.2042 -111.1317 270° West 387 445 38,000  Level Albuquerque Center
Fri 07:02:47 PM 34.2047 -111.2597 270° West 385 443 38,000  Level Albuquerque Center
Fri 07:03:49 PM 34.2033 -111.3869 269° West 382 440 38,000  Level Albuquerque Center
Fri 07:04:50 PM 34.2033 -111.5142 270° West 381 438 38,000  Level Albuquerque Center
Fri 07:05:52 PM 34.2028 -111.6411 270° West 383 441 38,000  Level Albuquerque Center
Fri 07:06:53 PM 34.2022 -111.7978 270° West 378 435 38,000  Level Albuquerque Center
Fri 07:07:55 PM 34.1997 -111.9239 269° West 378 435 38,000  Level Albuquerque Center
Fri 07:08:57 PM 34.1994 -112.0417 270° West 379 436 38,000  Level Albuquerque Center
Fri 07:09:58 PM 34.1986 -112.1686 270° West 381 438 38,000  Level Albuquerque Center
Fri 07:11:00 PM 34.1969 -112.2953 269° West 380 437 38,000  Level Albuquerque Center
Fri 07:12:02 PM 34.1950 -112.4481 269° West 381 438 38,000  Level Albuquerque Center
Fri 07:13:03 PM 34.1939 -112.5769 269° West 384 442 38,000  Level Albuquerque Center
Fri 07:14:04 PM 34.1917 -112.7044 269° West 382 440 38,000  Level Albuquerque Center
Fri 07:15:06 PM 34.1911 -112.8328 270° West 383 441 38,000  Level Albuquerque Center
Fri 07:16:08 PM 34.1886 -112.9622 269° West 385 443 38,000  Level Albuquerque Center
Fri 07:17:09 PM 34.1864 -113.0911 269° West 386 444 38,000  Level Albuquerque Center
Fri 07:18:11 PM 34.1844 -113.2192 269° West 384 442 38,000  Level Albuquerque Center
Fri 07:19:12 PM 34.1819 -113.3469 269° West 383 441 38,000  Level Albuquerque Center
Fri 07:20:14 PM 34.1792 -113.5022 269° West 386 444 38,000  Level Albuquerque Center
Fri 07:21:15 PM 34.1756 -113.6403 268° West 387 445 38,000  Level Albuquerque Center
Fri 07:22:17 PM 34.1711 -113.7697 268° West 386 444 38,000  Level Albuquerque Center
Fri 07:23:18 PM 34.1683 -113.8994 269° West 386 444 38,000  Level Albuquerque Center
Fri 07:24:20 PM 34.1669 -114.0275 269° West 383 441 38,000  Level Albuquerque Center
Fri 07:25:21 PM 34.1625 -114.1569 268° West 384 442 38,000  Level Albuquerque Center
Fri 07:26:23 PM 34.1597 -114.2861 269° West 384 442 38,000  Level Albuquerque Center
Fri 07:27:24 PM 34.1556 -114.4158 268° West 386 444 38,000 -122 Level Albuquerque Center
Fri 07:28:01 PM 34.1558 -114.4894 270° West 385 443 37,800 -606 Descending Los Angeles Center
Fri 07:29:03 PM 34.1525 -114.6175 268° West 384 442 37,000 -1,016 Descending Los Angeles Center
Fri 07:30:05 PM 34.1464 -114.7719 267° West 384 442 35,700 -1,161 Descending Los Angeles Center
Fri 07:31:07 PM 34.1425 -114.9050 268° West 392 451 34,600 -823 Descending Los Angeles Center
Fri 07:32:09 PM 34.1381 -115.0364 268° West 394 453 34,000 -290 Descending Los Angeles Center
Fri 07:33:11 PM 34.1331 -115.1706 267° West 398 458 34,000  Level Los Angeles Center
Fri 07:34:13 PM 34.1292 -115.3067 268° West 404 465 34,000  Level Los Angeles Center
Fri 07:35:15 PM 34.1247 -115.4431 268° West 406 467 34,000  Level Los Angeles Center
Fri 07:36:17 PM 34.1200 -115.6064 268° West 407 468 34,000  Level Los Angeles Center
Fri 07:37:19 PM 34.1150 -115.7411 267° West 405 466 34,000  Level Los Angeles Center
Fri 07:38:21 PM 34.0969 -115.8775 261° West 409 471 34,000  Level Los Angeles Center
Fri 07:39:24 PM 34.0767 -116.0083 259° West 403 464 34,000  Level Los Angeles Center
Fri 07:40:26 PM 34.0572 -116.1431 260° West 408 470 34,000 -919 Level Los Angeles Center
Fri 07:41:28 PM 34.0328 -116.3056 260° West 412 474 32,100 -2,032 Descending Los Angeles Center
Fri 07:42:30 PM 34.0125 -116.4392 260° West 409 471 29,800 -2,274 Descending Los Angeles Center
Fri 07:43:32 PM 33.9986 -116.5706 263° West 403 464 27,400 -2,468 Descending Los Angeles Center
Fri 07:44:34 PM 33.9886 -116.6981 265° West 390 449 24,700 -2,468 Descending Los Angeles Center
Fri 07:45:36 PM 33.9783 -116.8214 264° West 380 437 22,300 -2,557 Descending Los Angeles Center
Fri 07:46:29 PM 33.9667 -116.9500 264° West 364 419 19,800 -2,602 Descending Southern California TRACON
Fri 07:47:29 PM 33.9500 -117.0667 260° West 365 420 17,400 -1,636 Descending Southern California TRACON
Fri 07:48:30 PM 33.9500 -117.1833 270° West 346 398 16,500 -893 Descending Southern California TRACON
Fri 07:49:30 PM 33.9333 -117.3000 260° West 341 392 15,600 -1,100 Descending Southern California TRACON
Fri 07:50:30 PM 33.9500 -117.4167 280° West 331 381 14,300 -1,286 Descending Southern California TRACON
Fri 07:51:36 PM 33.9833 -117.5167 292° West 284 327 12,900 -1,286 Descending Southern California TRACON
Fri 07:52:36 PM 34.0167 -117.6000 296° West 343 395 11,600 -1,368 Descending Southern California TRACON
Fri 07:53:30 PM 34.0000 -117.7000 259° West 294 338 10,300 -1,368 Descending Southern California TRACON
Fri 07:54:30 PM 34.0000 -117.8000 270° West 296 341 9,000 -1,300 Descending Southern California TRACON
Fri 07:55:30 PM 33.9833 -117.9000 259° West 297 342 7,700 -1,250 Descending Southern California TRACON
Fri 07:56:30 PM 33.9833 -117.9833 270° West 266 306 6,500 -1,100 Descending Southern California TRACON
Fri 07:57:30 PM 33.9667 -118.0667 256° West 243 280 5,500 -950 Descending Southern California TRACON
Fri 07:58:30 PM 33.9667 -118.1500 270° West 227 261 4,600 -957 Descending Southern California TRACON
Fri 07:59:04 PM 33.9575 -118.1828 251° West 240 276 4,000 -1,063 Descending Los Angeles Center
Fri 08:00:06 PM 33.9503 -118.2492 263° West 217 250 2,900 -1,065 Descending Los Angeles Center
Fri 08:01:08 PM 33.9444 -118.3128 264° West 203 234 1,800 -1,113 Descending Los Angeles Center
Fri 08:02:10 PM 33.9406 -118.3658 265° West 178 205 600 -774 Descending Los Angeles Center
Fri 08:03:12 PM 33.9350 -118.4131 262° West 160 184 200 -387 Descending Los Angeles Center

Login

Don't have an account? Register now (free) for customized features, flight alerts, and more!